sensor_id;sensor_type;location;lat;lon;timestamp;P1;durP1;ratioP1;P2;durP2;ratioP2
4084;SDS011;2057;50.858;6.572;2024-02-21T00:01:15;26.33;;;8.40;;
4084;SDS011;2057;50.858;6.572;2024-02-21T00:03:41;24.23;;;8.03;;
4084;SDS011;2057;50.858;6.572;2024-02-21T00:06:08;22.10;;;9.03;;
4084;SDS011;2057;50.858;6.572;2024-02-21T00:08:34;33.73;;;8.57;;
4084;SDS011;2057;50.858;6.572;2024-02-21T00:10:59;27.53;;;9.00;;
4084;SDS011;2057;50.858;6.572;2024-02-21T00:13:24;23.80;;;9.40;;
4084;SDS011;2057;50.858;6.572;2024-02-21T00:15:50;36.20;;;8.40;;
4084;SDS011;2057;50.858;6.572;2024-02-21T00:18:17;35.47;;;9.93;;
4084;SDS011;2057;50.858;6.572;2024-02-21T00:20:45;37.40;;;9.90;;
4084;SDS011;2057;50.858;6.572;2024-02-21T00:23:10;28.13;;;10.00;;
4084;SDS011;2057;50.858;6.572;2024-02-21T00:25:36;28.17;;;8.23;;
4084;SDS011;2057;50.858;6.572;2024-02-21T00:28:03;20.47;;;7.57;;
4084;SDS011;2057;50.858;6.572;2024-02-21T00:30:30;31.43;;;9.80;;
4084;SDS011;2057;50.858;6.572;2024-02-21T00:32:59;32.87;;;8.97;;
4084;SDS011;2057;50.858;6.572;2024-02-21T00:35:26;33.47;;;10.90;;
4084;SDS011;2057;50.858;6.572;2024-02-21T00:37:51;29.50;;;8.70;;
4084;SDS011;2057;50.858;6.572;2024-02-21T00:40:17;28.83;;;8.90;;
4084;SDS011;2057;50.858;6.572;2024-02-21T00:42:48;28.57;;;10.40;;
4084;SDS011;2057;50.858;6.572;2024-02-21T00:45:13;27.20;;;9.17;;
4084;SDS011;2057;50.858;6.572;2024-02-21T00:47:53;27.53;;;8.77;;
4084;SDS011;2057;50.858;6.572;2024-02-21T00:50:19;33.63;;;7.77;;
4084;SDS011;2057;50.858;6.572;2024-02-21T00:52:44;31.83;;;9.20;;
4084;SDS011;2057;50.858;6.572;2024-02-21T00:55:09;27.30;;;9.17;;
4084;SDS011;2057;50.858;6.572;2024-02-21T00:57:35;28.83;;;11.23;;
4084;SDS011;2057;50.858;6.572;2024-02-21T01:00:01;27.20;;;9.20;;
4084;SDS011;2057;50.858;6.572;2024-02-21T01:02:30;17.10;;;8.40;;
4084;SDS011;2057;50.858;6.572;2024-02-21T01:04:56;32.73;;;8.90;;
4084;SDS011;2057;50.858;6.572;2024-02-21T01:07:24;27.57;;;9.37;;
4084;SDS011;2057;50.858;6.572;2024-02-21T01:09:50;25.40;;;9.27;;
4084;SDS011;2057;50.858;6.572;2024-02-21T01:12:18;31.60;;;8.90;;
4084;SDS011;2057;50.858;6.572;2024-02-21T01:14:46;40.13;;;10.73;;
4084;SDS011;2057;50.858;6.572;2024-02-21T01:17:11;28.17;;;9.00;;
4084;SDS011;2057;50.858;6.572;2024-02-21T01:19:39;29.60;;;8.90;;
4084;SDS011;2057;50.858;6.572;2024-02-21T01:22:05;30.87;;;10.63;;
4084;SDS011;2057;50.858;6.572;2024-02-21T01:24:30;43.30;;;9.70;;
4084;SDS011;2057;50.858;6.572;2024-02-21T01:26:58;29.93;;;10.57;;
4084;SDS011;2057;50.858;6.572;2024-02-21T01:29:23;22.73;;;9.40;;
4084;SDS011;2057;50.858;6.572;2024-02-21T01:31:48;19.93;;;7.40;;
4084;SDS011;2057;50.858;6.572;2024-02-21T01:34:14;26.93;;;9.60;;
4084;SDS011;2057;50.858;6.572;2024-02-21T01:36:39;24.53;;;9.40;;
4084;SDS011;2057;50.858;6.572;2024-02-21T01:39:06;24.47;;;8.40;;
4084;SDS011;2057;50.858;6.572;2024-02-21T01:41:32;25.77;;;8.33;;
4084;SDS011;2057;50.858;6.572;2024-02-21T01:43:57;21.83;;;7.87;;
4084;SDS011;2057;50.858;6.572;2024-02-21T01:46:23;29.03;;;9.27;;
4084;SDS011;2057;50.858;6.572;2024-02-21T01:48:53;27.77;;;9.30;;
4084;SDS011;2057;50.858;6.572;2024-02-21T01:51:19;24.43;;;8.47;;
4084;SDS011;2057;50.858;6.572;2024-02-21T01:53:44;29.10;;;9.30;;
4084;SDS011;2057;50.858;6.572;2024-02-21T01:56:13;18.37;;;7.97;;
4084;SDS011;2057;50.858;6.572;2024-02-21T01:58:42;34.33;;;9.53;;
4084;SDS011;2057;50.858;6.572;2024-02-21T02:01:09;26.17;;;8.50;;
4084;SDS011;2057;50.858;6.572;2024-02-21T02:03:38;25.53;;;8.50;;
4084;SDS011;2057;50.858;6.572;2024-02-21T02:06:05;24.57;;;7.80;;
4084;SDS011;2057;50.858;6.572;2024-02-21T02:08:39;22.87;;;8.53;;
4084;SDS011;2057;50.858;6.572;2024-02-21T02:11:04;28.27;;;8.70;;
4084;SDS011;2057;50.858;6.572;2024-02-21T02:13:30;17.07;;;7.23;;
4084;SDS011;2057;50.858;6.572;2024-02-21T02:15:55;30.90;;;7.97;;
4084;SDS011;2057;50.858;6.572;2024-02-21T02:18:20;24.33;;;7.90;;
4084;SDS011;2057;50.858;6.572;2024-02-21T02:20:49;26.47;;;8.10;;
4084;SDS011;2057;50.858;6.572;2024-02-21T02:25:42;30.77;;;9.00;;
4084;SDS011;2057;50.858;6.572;2024-02-21T02:28:08;21.87;;;8.67;;
4084;SDS011;2057;50.858;6.572;2024-02-21T02:30:34;16.93;;;6.87;;
4084;SDS011;2057;50.858;6.572;2024-02-21T02:33:04;28.07;;;8.57;;
4084;SDS011;2057;50.858;6.572;2024-02-21T02:35:30;34.30;;;8.17;;
4084;SDS011;2057;50.858;6.572;2024-02-21T02:37:56;22.77;;;7.73;;
4084;SDS011;2057;50.858;6.572;2024-02-21T02:40:21;15.67;;;6.10;;
4084;SDS011;2057;50.858;6.572;2024-02-21T02:42:51;42.07;;;6.67;;
4084;SDS011;2057;50.858;6.572;2024-02-21T02:45:19;20.40;;;7.20;;
4084;SDS011;2057;50.858;6.572;2024-02-21T02:47:45;23.53;;;7.70;;
4084;SDS011;2057;50.858;6.572;2024-02-21T02:50:13;11.70;;;7.20;;
4084;SDS011;2057;50.858;6.572;2024-02-21T02:52:38;20.67;;;7.50;;
4084;SDS011;2057;50.858;6.572;2024-02-21T02:55:07;26.83;;;7.07;;
4084;SDS011;2057;50.858;6.572;2024-02-21T02:57:33;19.53;;;6.83;;
4084;SDS011;2057;50.858;6.572;2024-02-21T02:59:58;26.27;;;7.33;;
4084;SDS011;2057;50.858;6.572;2024-02-21T03:02:26;21.67;;;7.30;;
4084;SDS011;2057;50.858;6.572;2024-02-21T03:04:55;16.43;;;6.13;;
4084;SDS011;2057;50.858;6.572;2024-02-21T03:07:23;26.90;;;7.33;;
4084;SDS011;2057;50.858;6.572;2024-02-21T03:09:52;13.37;;;6.20;;
4084;SDS011;2057;50.858;6.572;2024-02-21T03:12:19;25.63;;;6.70;;
4084;SDS011;2057;50.858;6.572;2024-02-21T03:14:57;13.43;;;7.00;;
4084;SDS011;2057;50.858;6.572;2024-02-21T03:17:22;31.60;;;6.50;;
4084;SDS011;2057;50.858;6.572;2024-02-21T03:19:48;19.23;;;6.73;;
4084;SDS011;2057;50.858;6.572;2024-02-21T03:22:14;13.63;;;6.00;;
4084;SDS011;2057;50.858;6.572;2024-02-21T03:24:41;21.27;;;6.10;;
4084;SDS011;2057;50.858;6.572;2024-02-21T03:27:09;25.73;;;7.17;;
4084;SDS011;2057;50.858;6.572;2024-02-21T03:29:37;17.63;;;6.90;;
4084;SDS011;2057;50.858;6.572;2024-02-21T03:32:02;19.73;;;5.70;;
4084;SDS011;2057;50.858;6.572;2024-02-21T03:34:30;18.50;;;6.07;;
4084;SDS011;2057;50.858;6.572;2024-02-21T03:36:56;12.83;;;5.70;;
4084;SDS011;2057;50.858;6.572;2024-02-21T03:39:30;20.17;;;6.50;;
4084;SDS011;2057;50.858;6.572;2024-02-21T03:41:58;15.80;;;5.80;;
4084;SDS011;2057;50.858;6.572;2024-02-21T03:44:30;16.53;;;6.20;;
4084;SDS011;2057;50.858;6.572;2024-02-21T03:46:59;14.83;;;5.90;;
4084;SDS011;2057;50.858;6.572;2024-02-21T03:49:28;17.63;;;6.33;;
4084;SDS011;2057;50.858;6.572;2024-02-21T03:51:53;17.30;;;5.27;;
4084;SDS011;2057;50.858;6.572;2024-02-21T03:54:19;19.53;;;6.87;;
4084;SDS011;2057;50.858;6.572;2024-02-21T03:56:44;19.03;;;6.20;;
4084;SDS011;2057;50.858;6.572;2024-02-21T03:59:10;19.57;;;6.23;;
4084;SDS011;2057;50.858;6.572;2024-02-21T04:01:35;19.00;;;6.97;;
4084;SDS011;2057;50.858;6.572;2024-02-21T04:04:01;16.10;;;6.60;;
4084;SDS011;2057;50.858;6.572;2024-02-21T04:06:26;18.27;;;6.50;;
4084;SDS011;2057;50.858;6.572;2024-02-21T04:08:54;13.47;;;6.33;;
4084;SDS011;2057;50.858;6.572;2024-02-21T04:11:22;20.60;;;7.83;;
4084;SDS011;2057;50.858;6.572;2024-02-21T04:13:50;19.30;;;6.53;;
4084;SDS011;2057;50.858;6.572;2024-02-21T04:16:18;23.00;;;6.87;;
4084;SDS011;2057;50.858;6.572;2024-02-21T04:18:46;21.50;;;5.73;;
4084;SDS011;2057;50.858;6.572;2024-02-21T04:21:14;13.93;;;6.60;;
4084;SDS011;2057;50.858;6.572;2024-02-21T04:23:41;13.23;;;6.23;;
4084;SDS011;2057;50.858;6.572;2024-02-21T04:26:06;13.30;;;6.33;;
4084;SDS011;2057;50.858;6.572;2024-02-21T04:28:34;10.87;;;6.33;;
4084;SDS011;2057;50.858;6.572;2024-02-21T04:31:03;12.10;;;6.40;;
4084;SDS011;2057;50.858;6.572;2024-02-21T04:33:30;25.30;;;7.17;;
4084;SDS011;2057;50.858;6.572;2024-02-21T04:35:58;25.47;;;6.37;;
4084;SDS011;2057;50.858;6.572;2024-02-21T04:38:27;15.67;;;6.13;;
4084;SDS011;2057;50.858;6.572;2024-02-21T04:40:54;18.57;;;7.23;;
4084;SDS011;2057;50.858;6.572;2024-02-21T04:43:23;20.77;;;5.93;;
4084;SDS011;2057;50.858;6.572;2024-02-21T04:45:49;18.80;;;7.13;;
4084;SDS011;2057;50.858;6.572;2024-02-21T04:48:15;15.97;;;6.20;;
4084;SDS011;2057;50.858;6.572;2024-02-21T04:50:40;23.40;;;6.47;;
4084;SDS011;2057;50.858;6.572;2024-02-21T04:53:06;23.73;;;6.33;;
4084;SDS011;2057;50.858;6.572;2024-02-21T04:55:31;17.50;;;6.53;;
4084;SDS011;2057;50.858;6.572;2024-02-21T04:57:59;14.40;;;6.07;;
4084;SDS011;2057;50.858;6.572;2024-02-21T05:00:27;21.70;;;6.57;;
4084;SDS011;2057;50.858;6.572;2024-02-21T05:02:52;17.40;;;6.80;;
4084;SDS011;2057;50.858;6.572;2024-02-21T05:07:53;21.27;;;6.23;;
4084;SDS011;2057;50.858;6.572;2024-02-21T05:10:30;22.13;;;7.10;;
4084;SDS011;2057;50.858;6.572;2024-02-21T05:12:56;12.30;;;6.43;;
4084;SDS011;2057;50.858;6.572;2024-02-21T05:15:26;17.97;;;6.10;;
4084;SDS011;2057;50.858;6.572;2024-02-21T05:17:53;19.10;;;6.60;;
4084;SDS011;2057;50.858;6.572;2024-02-21T05:20:19;24.07;;;8.03;;
4084;SDS011;2057;50.858;6.572;2024-02-21T05:22:44;23.03;;;6.33;;
4084;SDS011;2057;50.858;6.572;2024-02-21T05:25:17;19.30;;;5.97;;
4084;SDS011;2057;50.858;6.572;2024-02-21T05:27:45;27.17;;;6.27;;
4084;SDS011;2057;50.858;6.572;2024-02-21T05:30:15;20.10;;;6.50;;
4084;SDS011;2057;50.858;6.572;2024-02-21T05:32:43;21.50;;;5.57;;
4084;SDS011;2057;50.858;6.572;2024-02-21T05:35:08;14.27;;;5.47;;
4084;SDS011;2057;50.858;6.572;2024-02-21T05:37:37;19.87;;;5.73;;
4084;SDS011;2057;50.858;6.572;2024-02-21T05:40:03;22.53;;;6.47;;
4084;SDS011;2057;50.858;6.572;2024-02-21T05:42:29;12.20;;;5.97;;
4084;SDS011;2057;50.858;6.572;2024-02-21T05:44:56;13.40;;;5.67;;
4084;SDS011;2057;50.858;6.572;2024-02-21T05:47:22;17.63;;;5.53;;
4084;SDS011;2057;50.858;6.572;2024-02-21T05:49:49;24.03;;;6.43;;
4084;SDS011;2057;50.858;6.572;2024-02-21T05:52:19;25.73;;;6.60;;
4084;SDS011;2057;50.858;6.572;2024-02-21T05:54:44;27.53;;;6.97;;
4084;SDS011;2057;50.858;6.572;2024-02-21T05:57:12;20.70;;;5.17;;
4084;SDS011;2057;50.858;6.572;2024-02-21T05:59:40;25.90;;;5.70;;
4084;SDS011;2057;50.858;6.572;2024-02-21T06:02:12;22.73;;;4.83;;
4084;SDS011;2057;50.858;6.572;2024-02-21T06:04:38;25.80;;;6.80;;
4084;SDS011;2057;50.858;6.572;2024-02-21T06:07:07;16.03;;;6.23;;
4084;SDS011;2057;50.858;6.572;2024-02-21T06:09:33;23.90;;;5.90;;
4084;SDS011;2057;50.858;6.572;2024-02-21T06:12:07;15.23;;;5.40;;
4084;SDS011;2057;50.858;6.572;2024-02-21T06:14:32;14.37;;;5.70;;
4084;SDS011;2057;50.858;6.572;2024-02-21T06:17:00;12.23;;;5.63;;
4084;SDS011;2057;50.858;6.572;2024-02-21T06:19:27;17.50;;;6.70;;
4084;SDS011;2057;50.858;6.572;2024-02-21T06:21:53;20.67;;;6.70;;
4084;SDS011;2057;50.858;6.572;2024-02-21T06:24:18;16.00;;;5.53;;
4084;SDS011;2057;50.858;6.572;2024-02-21T06:26:44;14.57;;;5.57;;
4084;SDS011;2057;50.858;6.572;2024-02-21T06:29:10;19.53;;;5.97;;
4084;SDS011;2057;50.858;6.572;2024-02-21T06:31:36;12.37;;;5.20;;
4084;SDS011;2057;50.858;6.572;2024-02-21T06:34:01;24.30;;;6.20;;
4084;SDS011;2057;50.858;6.572;2024-02-21T06:36:37;18.17;;;5.70;;
4084;SDS011;2057;50.858;6.572;2024-02-21T06:39:07;11.70;;;4.53;;
4084;SDS011;2057;50.858;6.572;2024-02-21T06:41:36;22.87;;;6.57;;
4084;SDS011;2057;50.858;6.572;2024-02-21T06:44:05;21.83;;;6.63;;
4084;SDS011;2057;50.858;6.572;2024-02-21T06:46:30;14.10;;;5.90;;
4084;SDS011;2057;50.858;6.572;2024-02-21T06:48:58;10.73;;;5.10;;
4084;SDS011;2057;50.858;6.572;2024-02-21T06:51:29;22.57;;;5.50;;
4084;SDS011;2057;50.858;6.572;2024-02-21T06:53:56;15.73;;;5.97;;
4084;SDS011;2057;50.858;6.572;2024-02-21T06:56:23;20.60;;;6.40;;
4084;SDS011;2057;50.858;6.572;2024-02-21T06:58:57;20.63;;;6.83;;
4084;SDS011;2057;50.858;6.572;2024-02-21T07:01:25;12.17;;;5.50;;
4084;SDS011;2057;50.858;6.572;2024-02-21T07:03:50;15.83;;;5.67;;
4084;SDS011;2057;50.858;6.572;2024-02-21T07:06:16;29.83;;;5.97;;
4084;SDS011;2057;50.858;6.572;2024-02-21T07:08:44;29.53;;;6.70;;
4084;SDS011;2057;50.858;6.572;2024-02-21T07:11:09;21.03;;;4.87;;
4084;SDS011;2057;50.858;6.572;2024-02-21T07:13:38;20.50;;;5.97;;
4084;SDS011;2057;50.858;6.572;2024-02-21T07:16:03;26.70;;;5.50;;
4084;SDS011;2057;50.858;6.572;2024-02-21T07:18:29;19.37;;;6.27;;
4084;SDS011;2057;50.858;6.572;2024-02-21T07:20:57;29.17;;;6.73;;
4084;SDS011;2057;50.858;6.572;2024-02-21T07:23:23;18.37;;;6.10;;
4084;SDS011;2057;50.858;6.572;2024-02-21T07:25:48;15.23;;;5.57;;
4084;SDS011;2057;50.858;6.572;2024-02-21T07:28:19;20.43;;;6.33;;
4084;SDS011;2057;50.858;6.572;2024-02-21T07:30:47;22.70;;;7.00;;
4084;SDS011;2057;50.858;6.572;2024-02-21T07:33:13;17.30;;;6.27;;
4084;SDS011;2057;50.858;6.572;2024-02-21T07:35:41;18.37;;;6.50;;
4084;SDS011;2057;50.858;6.572;2024-02-21T07:38:07;18.33;;;7.47;;
4084;SDS011;2057;50.858;6.572;2024-02-21T07:40:33;13.97;;;5.90;;
4084;SDS011;2057;50.858;6.572;2024-02-21T07:42:58;18.10;;;6.50;;
4084;SDS011;2057;50.858;6.572;2024-02-21T07:45:29;20.53;;;6.23;;
4084;SDS011;2057;50.858;6.572;2024-02-21T07:47:57;11.40;;;6.87;;
4084;SDS011;2057;50.858;6.572;2024-02-21T07:50:22;26.37;;;6.23;;
4084;SDS011;2057;50.858;6.572;2024-02-21T07:52:48;18.20;;;7.53;;
4084;SDS011;2057;50.858;6.572;2024-02-21T07:55:16;18.23;;;7.00;;
4084;SDS011;2057;50.858;6.572;2024-02-21T07:57:44;24.03;;;7.10;;
4084;SDS011;2057;50.858;6.572;2024-02-21T08:00:09;13.30;;;7.10;;
4084;SDS011;2057;50.858;6.572;2024-02-21T08:02:40;22.17;;;7.73;;
4084;SDS011;2057;50.858;6.572;2024-02-21T08:05:10;18.63;;;6.47;;
4084;SDS011;2057;50.858;6.572;2024-02-21T08:07:37;19.33;;;6.97;;
4084;SDS011;2057;50.858;6.572;2024-02-21T08:10:03;24.40;;;7.20;;
4084;SDS011;2057;50.858;6.572;2024-02-21T08:12:29;20.33;;;8.20;;
4084;SDS011;2057;50.858;6.572;2024-02-21T08:14:54;20.77;;;6.97;;
4084;SDS011;2057;50.858;6.572;2024-02-21T08:17:22;17.97;;;6.63;;
4084;SDS011;2057;50.858;6.572;2024-02-21T08:19:50;19.27;;;7.23;;
4084;SDS011;2057;50.858;6.572;2024-02-21T08:22:17;16.53;;;6.60;;
4084;SDS011;2057;50.858;6.572;2024-02-21T08:24:43;20.90;;;7.13;;
4084;SDS011;2057;50.858;6.572;2024-02-21T08:27:08;26.77;;;7.13;;
4084;SDS011;2057;50.858;6.572;2024-02-21T08:29:36;25.08;;;5.72;;
4084;SDS011;2057;50.858;6.572;2024-02-21T08:32:01;24.00;;;6.80;;
4084;SDS011;2057;50.858;6.572;2024-02-21T08:34:27;26.17;;;7.73;;
4084;SDS011;2057;50.858;6.572;2024-02-21T08:36:54;17.23;;;7.00;;
4084;SDS011;2057;50.858;6.572;2024-02-21T08:39:20;18.33;;;5.80;;
4084;SDS011;2057;50.858;6.572;2024-02-21T08:41:45;9.40;;;4.10;;
4084;SDS011;2057;50.858;6.572;2024-02-21T08:44:10;12.93;;;4.87;;
4084;SDS011;2057;50.858;6.572;2024-02-21T08:46:36;22.00;;;4.83;;
4084;SDS011;2057;50.858;6.572;2024-02-21T08:49:05;13.07;;;4.17;;
4084;SDS011;2057;50.858;6.572;2024-02-21T08:51:33;11.53;;;3.70;;
4084;SDS011;2057;50.858;6.572;2024-02-21T08:53:59;11.43;;;5.07;;
4084;SDS011;2057;50.858;6.572;2024-02-21T08:56:26;15.77;;;4.73;;
4084;SDS011;2057;50.858;6.572;2024-02-21T08:58:51;14.50;;;5.97;;
4084;SDS011;2057;50.858;6.572;2024-02-21T09:01:16;9.73;;;3.80;;
4084;SDS011;2057;50.858;6.572;2024-02-21T09:03:44;11.57;;;5.93;;
4084;SDS011;2057;50.858;6.572;2024-02-21T09:06:11;16.83;;;4.87;;
4084;SDS011;2057;50.858;6.572;2024-02-21T09:08:38;15.73;;;5.93;;
4084;SDS011;2057;50.858;6.572;2024-02-21T09:11:06;14.73;;;6.10;;
4084;SDS011;2057;50.858;6.572;2024-02-21T09:13:37;12.57;;;4.83;;
4084;SDS011;2057;50.858;6.572;2024-02-21T09:16:07;14.33;;;4.87;;
4084;SDS011;2057;50.858;6.572;2024-02-21T09:18:35;10.77;;;5.20;;
4084;SDS011;2057;50.858;6.572;2024-02-21T09:21:00;12.60;;;4.40;;
4084;SDS011;2057;50.858;6.572;2024-02-21T09:23:26;11.20;;;5.60;;
4084;SDS011;2057;50.858;6.572;2024-02-21T09:25:52;11.83;;;4.20;;
4084;SDS011;2057;50.858;6.572;2024-02-21T09:28:20;16.50;;;4.60;;
4084;SDS011;2057;50.858;6.572;2024-02-21T09:30:48;14.53;;;4.80;;
4084;SDS011;2057;50.858;6.572;2024-02-21T09:33:13;14.23;;;5.57;;
4084;SDS011;2057;50.858;6.572;2024-02-21T09:35:39;13.73;;;5.20;;
4084;SDS011;2057;50.858;6.572;2024-02-21T09:38:04;15.63;;;5.50;;
4084;SDS011;2057;50.858;6.572;2024-02-21T09:40:30;21.27;;;6.00;;
4084;SDS011;2057;50.858;6.572;2024-02-21T09:43:07;11.03;;;4.40;;
4084;SDS011;2057;50.858;6.572;2024-02-21T09:45:33;18.90;;;5.50;;
4084;SDS011;2057;50.858;6.572;2024-02-21T09:50:39;14.33;;;4.27;;
4084;SDS011;2057;50.858;6.572;2024-02-21T09:53:06;9.90;;;4.33;;
4084;SDS011;2057;50.858;6.572;2024-02-21T09:55:32;12.60;;;4.97;;
4084;SDS011;2057;50.858;6.572;2024-02-21T09:57:59;23.93;;;5.20;;
4084;SDS011;2057;50.858;6.572;2024-02-21T10:00:26;11.10;;;4.07;;
4084;SDS011;2057;50.858;6.572;2024-02-21T10:02:53;18.17;;;5.30;;
4084;SDS011;2057;50.858;6.572;2024-02-21T10:05:21;13.30;;;4.73;;
4084;SDS011;2057;50.858;6.572;2024-02-21T10:07:47;11.80;;;3.83;;
4084;SDS011;2057;50.858;6.572;2024-02-21T10:10:14;11.77;;;4.33;;
4084;SDS011;2057;50.858;6.572;2024-02-21T10:12:50;10.03;;;4.13;;
4084;SDS011;2057;50.858;6.572;2024-02-21T10:15:22;19.27;;;4.60;;
4084;SDS011;2057;50.858;6.572;2024-02-21T10:17:49;9.73;;;3.63;;
4084;SDS011;2057;50.858;6.572;2024-02-21T10:20:31;12.17;;;3.57;;
4084;SDS011;2057;50.858;6.572;2024-02-21T10:23:01;16.00;;;4.90;;
4084;SDS011;2057;50.858;6.572;2024-02-21T10:25:33;7.87;;;3.03;;
4084;SDS011;2057;50.858;6.572;2024-02-21T10:28:08;15.47;;;4.73;;
4084;SDS011;2057;50.858;6.572;2024-02-21T10:30:33;12.60;;;4.83;;
4084;SDS011;2057;50.858;6.572;2024-02-21T10:33:01;16.20;;;4.27;;
4084;SDS011;2057;50.858;6.572;2024-02-21T10:35:29;11.60;;;4.03;;
4084;SDS011;2057;50.858;6.572;2024-02-21T10:37:56;7.87;;;3.80;;
4084;SDS011;2057;50.858;6.572;2024-02-21T10:40:24;12.87;;;3.60;;
4084;SDS011;2057;50.858;6.572;2024-02-21T10:42:57;8.03;;;3.70;;
4084;SDS011;2057;50.858;6.572;2024-02-21T10:45:27;12.30;;;3.80;;
4084;SDS011;2057;50.858;6.572;2024-02-21T10:47:55;14.10;;;3.57;;
4084;SDS011;2057;50.858;6.572;2024-02-21T10:50:31;10.53;;;3.83;;
4084;SDS011;2057;50.858;6.572;2024-02-21T10:53:09;17.73;;;3.93;;
4084;SDS011;2057;50.858;6.572;2024-02-21T10:55:51;9.67;;;3.83;;
4084;SDS011;2057;50.858;6.572;2024-02-21T10:58:34;15.60;;;3.33;;
4084;SDS011;2057;50.858;6.572;2024-02-21T11:01:02;9.53;;;3.40;;
4084;SDS011;2057;50.858;6.572;2024-02-21T11:03:32;11.40;;;4.03;;
4084;SDS011;2057;50.858;6.572;2024-02-21T11:06:00;17.50;;;4.03;;
4084;SDS011;2057;50.858;6.572;2024-02-21T11:08:29;24.13;;;4.40;;
4084;SDS011;2057;50.858;6.572;2024-02-21T11:10:58;23.17;;;5.40;;
4084;SDS011;2057;50.858;6.572;2024-02-21T11:14:03;12.13;;;3.67;;
4084;SDS011;2057;50.858;6.572;2024-02-21T11:16:22;8.97;;;3.70;;
4084;SDS011;2057;50.858;6.572;2024-02-21T11:18:50;10.43;;;4.17;;
4084;SDS011;2057;50.858;6.572;2024-02-21T11:21:20;10.37;;;3.70;;
4084;SDS011;2057;50.858;6.572;2024-02-21T11:23:54;12.97;;;4.97;;
4084;SDS011;2057;50.858;6.572;2024-02-21T11:26:22;14.13;;;3.93;;
4084;SDS011;2057;50.858;6.572;2024-02-21T11:28:57;12.23;;;4.00;;
4084;SDS011;2057;50.858;6.572;2024-02-21T11:31:37;11.07;;;3.90;;
4084;SDS011;2057;50.858;6.572;2024-02-21T11:34:05;14.37;;;3.93;;
4084;SDS011;2057;50.858;6.572;2024-02-21T11:36:33;27.57;;;5.00;;
4084;SDS011;2057;50.858;6.572;2024-02-21T11:39:04;23.40;;;3.60;;
4084;SDS011;2057;50.858;6.572;2024-02-21T11:41:30;9.10;;;3.07;;
4084;SDS011;2057;50.858;6.572;2024-02-21T11:43:56;5.73;;;3.20;;
4084;SDS011;2057;50.858;6.572;2024-02-21T11:46:22;9.47;;;2.73;;
4084;SDS011;2057;50.858;6.572;2024-02-21T11:48:48;7.53;;;2.90;;
4084;SDS011;2057;50.858;6.572;2024-02-21T11:51:24;11.40;;;3.90;;
4084;SDS011;2057;50.858;6.572;2024-02-21T11:53:55;13.30;;;3.33;;
4084;SDS011;2057;50.858;6.572;2024-02-21T11:56:22;15.07;;;3.77;;
4084;SDS011;2057;50.858;6.572;2024-02-21T11:58:48;8.67;;;2.50;;
4084;SDS011;2057;50.858;6.572;2024-02-21T12:01:15;12.53;;;3.30;;
4084;SDS011;2057;50.858;6.572;2024-02-21T12:03:42;14.13;;;3.33;;
4084;SDS011;2057;50.858;6.572;2024-02-21T12:06:18;14.83;;;4.50;;
4084;SDS011;2057;50.858;6.572;2024-02-21T12:08:48;9.03;;;3.70;;
4084;SDS011;2057;50.858;6.572;2024-02-21T12:11:21;11.53;;;3.90;;
4084;SDS011;2057;50.858;6.572;2024-02-21T12:14:00;13.17;;;3.50;;
4084;SDS011;2057;50.858;6.572;2024-02-21T12:16:29;12.97;;;3.53;;
4084;SDS011;2057;50.858;6.572;2024-02-21T12:18:59;10.43;;;4.23;;
4084;SDS011;2057;50.858;6.572;2024-02-21T12:21:34;8.60;;;3.90;;
4084;SDS011;2057;50.858;6.572;2024-02-21T12:24:15;10.57;;;4.07;;
4084;SDS011;2057;50.858;6.572;2024-02-21T12:26:45;13.93;;;4.27;;
4084;SDS011;2057;50.858;6.572;2024-02-21T12:29:10;9.97;;;4.73;;
4084;SDS011;2057;50.858;6.572;2024-02-21T12:31:36;13.07;;;4.30;;
4084;SDS011;2057;50.858;6.572;2024-02-21T12:34:05;12.90;;;4.23;;
4084;SDS011;2057;50.858;6.572;2024-02-21T12:36:33;27.77;;;5.07;;
4084;SDS011;2057;50.858;6.572;2024-02-21T12:39:01;20.63;;;4.37;;
4084;SDS011;2057;50.858;6.572;2024-02-21T12:41:28;11.17;;;4.03;;
4084;SDS011;2057;50.858;6.572;2024-02-21T12:43:57;14.47;;;3.97;;
4084;SDS011;2057;50.858;6.572;2024-02-21T12:46:22;12.80;;;3.90;;
4084;SDS011;2057;50.858;6.572;2024-02-21T12:48:55;10.13;;;4.00;;
4084;SDS011;2057;50.858;6.572;2024-02-21T12:51:22;10.17;;;3.77;;
4084;SDS011;2057;50.858;6.572;2024-02-21T12:53:48;10.00;;;3.43;;
4084;SDS011;2057;50.858;6.572;2024-02-21T12:56:14;11.40;;;4.67;;
4084;SDS011;2057;50.858;6.572;2024-02-21T12:58:42;8.60;;;3.20;;
4084;SDS011;2057;50.858;6.572;2024-02-21T13:01:08;15.63;;;4.23;;
4084;SDS011;2057;50.858;6.572;2024-02-21T13:03:34;11.43;;;4.33;;
4084;SDS011;2057;50.858;6.572;2024-02-21T13:06:01;15.80;;;4.30;;
4084;SDS011;2057;50.858;6.572;2024-02-21T13:08:27;19.23;;;3.90;;
4084;SDS011;2057;50.858;6.572;2024-02-21T13:10:52;14.63;;;4.83;;
4084;SDS011;2057;50.858;6.572;2024-02-21T13:13:17;17.00;;;4.70;;
4084;SDS011;2057;50.858;6.572;2024-02-21T13:15:43;22.70;;;4.20;;
4084;SDS011;2057;50.858;6.572;2024-02-21T13:18:09;14.10;;;4.63;;
4084;SDS011;2057;50.858;6.572;2024-02-21T13:20:35;9.23;;;4.03;;
4084;SDS011;2057;50.858;6.572;2024-02-21T13:23:03;12.83;;;4.47;;
4084;SDS011;2057;50.858;6.572;2024-02-21T13:25:31;19.67;;;4.67;;
4084;SDS011;2057;50.858;6.572;2024-02-21T13:28:05;14.33;;;4.20;;
4084;SDS011;2057;50.858;6.572;2024-02-21T13:30:30;8.40;;;3.30;;
4084;SDS011;2057;50.858;6.572;2024-02-21T13:32:56;9.20;;;3.87;;
4084;SDS011;2057;50.858;6.572;2024-02-21T13:35:23;9.03;;;3.77;;
4084;SDS011;2057;50.858;6.572;2024-02-21T13:37:48;13.93;;;3.80;;
4084;SDS011;2057;50.858;6.572;2024-02-21T13:40:16;13.90;;;3.80;;
4084;SDS011;2057;50.858;6.572;2024-02-21T13:42:47;9.57;;;4.03;;
4084;SDS011;2057;50.858;6.572;2024-02-21T13:45:12;13.63;;;3.80;;
4084;SDS011;2057;50.858;6.572;2024-02-21T13:47:37;13.67;;;4.03;;
4084;SDS011;2057;50.858;6.572;2024-02-21T13:50:04;7.73;;;3.33;;
4084;SDS011;2057;50.858;6.572;2024-02-21T13:52:33;9.10;;;4.67;;
4084;SDS011;2057;50.858;6.572;2024-02-21T13:54:58;11.80;;;4.13;;
4084;SDS011;2057;50.858;6.572;2024-02-21T13:57:33;13.03;;;4.17;;
4084;SDS011;2057;50.858;6.572;2024-02-21T14:00:02;13.73;;;3.57;;
4084;SDS011;2057;50.858;6.572;2024-02-21T14:02:28;13.87;;;4.10;;
4084;SDS011;2057;50.858;6.572;2024-02-21T14:04:54;13.10;;;4.60;;
4084;SDS011;2057;50.858;6.572;2024-02-21T14:07:22;10.30;;;4.43;;
4084;SDS011;2057;50.858;6.572;2024-02-21T14:09:48;15.20;;;4.70;;
4084;SDS011;2057;50.858;6.572;2024-02-21T14:12:16;15.83;;;4.70;;
4084;SDS011;2057;50.858;6.572;2024-02-21T14:14:45;8.93;;;3.50;;
4084;SDS011;2057;50.858;6.572;2024-02-21T14:17:13;8.10;;;4.10;;
4084;SDS011;2057;50.858;6.572;2024-02-21T14:19:41;11.07;;;2.87;;
4084;SDS011;2057;50.858;6.572;2024-02-21T14:22:06;19.07;;;3.97;;
4084;SDS011;2057;50.858;6.572;2024-02-21T14:24:35;11.17;;;2.97;;
4084;SDS011;2057;50.858;6.572;2024-02-21T14:27:18;9.33;;;3.73;;
4084;SDS011;2057;50.858;6.572;2024-02-21T14:29:43;13.00;;;3.17;;
4084;SDS011;2057;50.858;6.572;2024-02-21T14:32:09;8.57;;;3.10;;
4084;SDS011;2057;50.858;6.572;2024-02-21T14:34:35;5.93;;;2.97;;
4084;SDS011;2057;50.858;6.572;2024-02-21T14:37:03;4.67;;;2.67;;
4084;SDS011;2057;50.858;6.572;2024-02-21T14:39:31;11.77;;;3.10;;
4084;SDS011;2057;50.858;6.572;2024-02-21T14:41:59;14.93;;;3.70;;
4084;SDS011;2057;50.858;6.572;2024-02-21T14:44:25;8.03;;;2.97;;
4084;SDS011;2057;50.858;6.572;2024-02-21T14:46:52;8.60;;;3.10;;
4084;SDS011;2057;50.858;6.572;2024-02-21T14:49:20;15.00;;;4.83;;
4084;SDS011;2057;50.858;6.572;2024-02-21T14:51:45;14.43;;;4.37;;
4084;SDS011;2057;50.858;6.572;2024-02-21T14:54:11;13.50;;;4.50;;
4084;SDS011;2057;50.858;6.572;2024-02-21T14:56:39;32.83;;;4.30;;
4084;SDS011;2057;50.858;6.572;2024-02-21T14:59:04;8.50;;;4.10;;
4084;SDS011;2057;50.858;6.572;2024-02-21T15:01:30;19.70;;;3.77;;
4084;SDS011;2057;50.858;6.572;2024-02-21T15:03:57;7.90;;;3.50;;
4084;SDS011;2057;50.858;6.572;2024-02-21T15:06:24;7.17;;;3.03;;
4084;SDS011;2057;50.858;6.572;2024-02-21T15:08:54;12.43;;;4.53;;
4084;SDS011;2057;50.858;6.572;2024-02-21T15:11:25;11.47;;;3.53;;
4084;SDS011;2057;50.858;6.572;2024-02-21T15:13:50;6.80;;;2.90;;